sensor_id;sensor_type;location;lat;lon;timestamp;P1;durP1;ratioP1;P2;durP2;ratioP2
63906;SDS011;50075;49.484;11.238;2022-12-29T00:01:54;24.77;;;3.47;;
63906;SDS011;50075;49.484;11.238;2022-12-29T00:04:20;26.58;;;3.80;;
63906;SDS011;50075;49.484;11.238;2022-12-29T00:06:46;25.85;;;3.67;;
63906;SDS011;50075;49.484;11.238;2022-12-29T00:09:13;33.63;;;4.43;;
63906;SDS011;50075;49.484;11.238;2022-12-29T00:11:40;26.75;;;3.83;;
63906;SDS011;50075;49.484;11.238;2022-12-29T00:14:07;27.98;;;3.83;;
63906;SDS011;50075;49.484;11.238;2022-12-29T00:16:52;18.88;;;3.20;;
63906;SDS011;50075;49.484;11.238;2022-12-29T00:19:18;28.15;;;4.10;;
63906;SDS011;50075;49.484;11.238;2022-12-29T00:22:02;31.63;;;4.15;;
63906;SDS011;50075;49.484;11.238;2022-12-29T00:24:46;30.55;;;4.30;;
63906;SDS011;50075;49.484;11.238;2022-12-29T00:27:30;35.80;;;4.53;;
63906;SDS011;50075;49.484;11.238;2022-12-29T00:30:16;34.30;;;4.35;;
63906;SDS011;50075;49.484;11.238;2022-12-29T00:33:11;28.45;;;3.78;;
63906;SDS011;50075;49.484;11.238;2022-12-29T00:38:35;40.88;;;5.15;;
63906;SDS011;50075;49.484;11.238;2022-12-29T00:41:21;33.97;;;4.40;;
63906;SDS011;50075;49.484;11.238;2022-12-29T00:44:07;23.42;;;3.50;;
63906;SDS011;50075;49.484;11.238;2022-12-29T00:46:39;25.65;;;4.03;;
63906;SDS011;50075;49.484;11.238;2022-12-29T00:49:06;33.90;;;4.40;;
63906;SDS011;50075;49.484;11.238;2022-12-29T00:51:52;27.98;;;4.18;;
63906;SDS011;50075;49.484;11.238;2022-12-29T00:54:19;17.45;;;2.80;;
63906;SDS011;50075;49.484;11.238;2022-12-29T00:56:48;24.52;;;3.80;;
63906;SDS011;50075;49.484;11.238;2022-12-29T00:59:14;22.50;;;3.45;;
63906;SDS011;50075;49.484;11.238;2022-12-29T01:01:40;28.63;;;4.07;;
63906;SDS011;50075;49.484;11.238;2022-12-29T01:04:06;24.60;;;3.65;;
63906;SDS011;50075;49.484;11.238;2022-12-29T01:06:33;36.28;;;4.53;;
63906;SDS011;50075;49.484;11.238;2022-12-29T01:08:59;37.58;;;4.90;;
63906;SDS011;50075;49.484;11.238;2022-12-29T01:11:43;24.95;;;3.65;;
63906;SDS011;50075;49.484;11.238;2022-12-29T01:14:09;23.02;;;3.92;;
63906;SDS011;50075;49.484;11.238;2022-12-29T01:16:34;19.35;;;3.08;;
63906;SDS011;50075;49.484;11.238;2022-12-29T01:19:01;29.25;;;3.83;;
63906;SDS011;50075;49.484;11.238;2022-12-29T01:21:28;24.45;;;3.35;;
63906;SDS011;50075;49.484;11.238;2022-12-29T01:23:53;21.27;;;3.28;;
63906;SDS011;50075;49.484;11.238;2022-12-29T01:26:19;16.83;;;2.85;;
63906;SDS011;50075;49.484;11.238;2022-12-29T01:28:44;30.73;;;4.25;;
63906;SDS011;50075;49.484;11.238;2022-12-29T01:31:10;28.88;;;4.13;;
63906;SDS011;50075;49.484;11.238;2022-12-29T01:33:37;27.88;;;3.67;;
63906;SDS011;50075;49.484;11.238;2022-12-29T01:36:04;27.30;;;3.88;;
63906;SDS011;50075;49.484;11.238;2022-12-29T01:38:32;26.60;;;3.90;;
63906;SDS011;50075;49.484;11.238;2022-12-29T01:40:58;20.95;;;3.50;;
63906;SDS011;50075;49.484;11.238;2022-12-29T01:43:40;27.17;;;3.90;;
63906;SDS011;50075;49.484;11.238;2022-12-29T01:46:28;21.20;;;3.60;;
63906;SDS011;50075;49.484;11.238;2022-12-29T01:49:00;31.33;;;4.40;;
63906;SDS011;50075;49.484;11.238;2022-12-29T01:51:52;21.17;;;3.50;;
63906;SDS011;50075;49.484;11.238;2022-12-29T01:54:22;31.15;;;4.60;;
63906;SDS011;50075;49.484;11.238;2022-12-29T01:56:52;19.50;;;3.10;;
63906;SDS011;50075;49.484;11.238;2022-12-29T01:59:24;24.08;;;3.88;;
63906;SDS011;50075;49.484;11.238;2022-12-29T02:14:55;168.13;;;16.73;;
63906;SDS011;50075;49.484;11.238;2022-12-29T02:33:07;212.43;;;20.23;;
63906;SDS011;50075;49.484;11.238;2022-12-29T02:57:01;131.40;;;13.15;;
63906;SDS011;50075;49.484;11.238;2022-12-29T03:07:35;21.02;;;3.65;;
63906;SDS011;50075;49.484;11.238;2022-12-29T03:13:01;28.30;;;4.40;;
63906;SDS011;50075;49.484;11.238;2022-12-29T03:15:54;37.53;;;5.22;;
63906;SDS011;50075;49.484;11.238;2022-12-29T03:22:01;21.25;;;3.80;;
63906;SDS011;50075;49.484;11.238;2022-12-29T03:24:32;22.88;;;3.95;;
63906;SDS011;50075;49.484;11.238;2022-12-29T03:27:02;29.13;;;4.40;;
63906;SDS011;50075;49.484;11.238;2022-12-29T03:29:31;23.70;;;4.03;;
63906;SDS011;50075;49.484;11.238;2022-12-29T03:31:59;25.50;;;4.13;;
63906;SDS011;50075;49.484;11.238;2022-12-29T03:34:27;15.60;;;3.03;;
63906;SDS011;50075;49.484;11.238;2022-12-29T03:37:05;20.77;;;3.70;;
63906;SDS011;50075;49.484;11.238;2022-12-29T03:39:35;28.35;;;4.60;;
63906;SDS011;50075;49.484;11.238;2022-12-29T03:42:03;31.83;;;4.75;;
63906;SDS011;50075;49.484;11.238;2022-12-29T03:44:37;17.45;;;3.40;;
63906;SDS011;50075;49.484;11.238;2022-12-29T03:47:05;28.10;;;4.30;;
63906;SDS011;50075;49.484;11.238;2022-12-29T03:49:30;18.88;;;3.35;;
63906;SDS011;50075;49.484;11.238;2022-12-29T03:51:56;18.60;;;3.40;;
63906;SDS011;50075;49.484;11.238;2022-12-29T03:54:21;16.50;;;3.22;;
63906;SDS011;50075;49.484;11.238;2022-12-29T03:56:48;18.60;;;2.95;;
63906;SDS011;50075;49.484;11.238;2022-12-29T03:59:13;18.48;;;3.50;;
63906;SDS011;50075;49.484;11.238;2022-12-29T04:01:38;19.52;;;3.42;;
63906;SDS011;50075;49.484;11.238;2022-12-29T04:04:04;18.92;;;3.60;;
63906;SDS011;50075;49.484;11.238;2022-12-29T04:06:29;20.92;;;3.53;;
63906;SDS011;50075;49.484;11.238;2022-12-29T04:08:55;19.60;;;3.55;;
63906;SDS011;50075;49.484;11.238;2022-12-29T04:11:20;20.77;;;3.50;;
63906;SDS011;50075;49.484;11.238;2022-12-29T04:13:46;14.70;;;3.20;;
63906;SDS011;50075;49.484;11.238;2022-12-29T04:16:11;17.40;;;3.20;;
63906;SDS011;50075;49.484;11.238;2022-12-29T04:18:37;24.52;;;4.18;;
63906;SDS011;50075;49.484;11.238;2022-12-29T04:21:02;20.00;;;3.33;;
63906;SDS011;50075;49.484;11.238;2022-12-29T04:23:30;21.23;;;3.67;;
63906;SDS011;50075;49.484;11.238;2022-12-29T04:25:57;19.95;;;3.85;;
63906;SDS011;50075;49.484;11.238;2022-12-29T04:28:23;22.55;;;3.88;;
63906;SDS011;50075;49.484;11.238;2022-12-29T04:30:48;20.98;;;3.70;;
63906;SDS011;50075;49.484;11.238;2022-12-29T04:33:14;18.73;;;3.20;;
63906;SDS011;50075;49.484;11.238;2022-12-29T04:35:39;26.38;;;4.38;;
63906;SDS011;50075;49.484;11.238;2022-12-29T04:38:05;18.73;;;3.22;;
63906;SDS011;50075;49.484;11.238;2022-12-29T04:40:30;21.77;;;3.65;;
63906;SDS011;50075;49.484;11.238;2022-12-29T04:42:56;21.05;;;3.50;;
63906;SDS011;50075;49.484;11.238;2022-12-29T04:45:21;18.23;;;3.30;;
63906;SDS011;50075;49.484;11.238;2022-12-29T04:47:47;20.08;;;3.60;;
63906;SDS011;50075;49.484;11.238;2022-12-29T04:50:12;17.40;;;3.10;;
63906;SDS011;50075;49.484;11.238;2022-12-29T04:52:38;19.38;;;3.35;;
63906;SDS011;50075;49.484;11.238;2022-12-29T04:55:04;20.58;;;3.45;;
63906;SDS011;50075;49.484;11.238;2022-12-29T04:57:30;23.75;;;3.67;;
63906;SDS011;50075;49.484;11.238;2022-12-29T04:59:56;24.17;;;3.78;;
63906;SDS011;50075;49.484;11.238;2022-12-29T05:02:21;18.52;;;3.22;;
63906;SDS011;50075;49.484;11.238;2022-12-29T05:04:47;15.68;;;2.92;;
63906;SDS011;50075;49.484;11.238;2022-12-29T05:07:12;18.95;;;3.35;;
63906;SDS011;50075;49.484;11.238;2022-12-29T05:09:38;27.55;;;4.57;;
63906;SDS011;50075;49.484;11.238;2022-12-29T05:12:04;25.63;;;3.85;;
63906;SDS011;50075;49.484;11.238;2022-12-29T05:14:29;18.52;;;3.38;;
63906;SDS011;50075;49.484;11.238;2022-12-29T05:16:55;19.65;;;3.28;;
63906;SDS011;50075;49.484;11.238;2022-12-29T05:19:20;17.13;;;3.17;;
63906;SDS011;50075;49.484;11.238;2022-12-29T05:21:46;18.50;;;3.40;;
63906;SDS011;50075;49.484;11.238;2022-12-29T05:24:11;23.17;;;3.78;;
63906;SDS011;50075;49.484;11.238;2022-12-29T05:26:36;19.30;;;3.35;;
63906;SDS011;50075;49.484;11.238;2022-12-29T05:29:02;26.00;;;3.90;;
63906;SDS011;50075;49.484;11.238;2022-12-29T05:31:28;18.77;;;3.20;;
63906;SDS011;50075;49.484;11.238;2022-12-29T05:33:53;17.13;;;3.17;;
63906;SDS011;50075;49.484;11.238;2022-12-29T05:36:19;26.17;;;4.18;;
63906;SDS011;50075;49.484;11.238;2022-12-29T05:38:44;22.08;;;3.72;;
63906;SDS011;50075;49.484;11.238;2022-12-29T05:41:10;29.35;;;4.30;;
63906;SDS011;50075;49.484;11.238;2022-12-29T05:43:35;19.58;;;3.40;;
63906;SDS011;50075;49.484;11.238;2022-12-29T05:46:01;22.20;;;3.75;;
63906;SDS011;50075;49.484;11.238;2022-12-29T05:48:27;25.60;;;3.92;;
63906;SDS011;50075;49.484;11.238;2022-12-29T05:50:52;19.48;;;3.25;;
63906;SDS011;50075;49.484;11.238;2022-12-29T05:53:18;25.52;;;3.92;;
63906;SDS011;50075;49.484;11.238;2022-12-29T05:55:44;22.25;;;3.63;;
63906;SDS011;50075;49.484;11.238;2022-12-29T05:58:11;18.25;;;3.33;;
63906;SDS011;50075;49.484;11.238;2022-12-29T06:00:37;23.20;;;3.60;;
63906;SDS011;50075;49.484;11.238;2022-12-29T06:03:03;17.02;;;2.88;;
63906;SDS011;50075;49.484;11.238;2022-12-29T06:05:28;24.88;;;4.00;;
63906;SDS011;50075;49.484;11.238;2022-12-29T06:07:54;19.90;;;3.25;;
63906;SDS011;50075;49.484;11.238;2022-12-29T06:10:19;14.88;;;3.00;;
63906;SDS011;50075;49.484;11.238;2022-12-29T06:12:45;26.00;;;4.00;;
63906;SDS011;50075;49.484;11.238;2022-12-29T06:15:11;17.55;;;3.28;;
63906;SDS011;50075;49.484;11.238;2022-12-29T06:17:36;32.88;;;4.60;;
63906;SDS011;50075;49.484;11.238;2022-12-29T06:20:02;23.33;;;3.55;;
63906;SDS011;50075;49.484;11.238;2022-12-29T06:22:28;21.38;;;3.60;;
63906;SDS011;50075;49.484;11.238;2022-12-29T06:24:53;25.27;;;4.25;;
63906;SDS011;50075;49.484;11.238;2022-12-29T06:27:18;18.42;;;3.38;;
63906;SDS011;50075;49.484;11.238;2022-12-29T06:29:44;33.95;;;4.90;;
63906;SDS011;50075;49.484;11.238;2022-12-29T06:32:09;14.85;;;2.88;;
63906;SDS011;50075;49.484;11.238;2022-12-29T06:34:34;21.98;;;3.60;;
63906;SDS011;50075;49.484;11.238;2022-12-29T06:37:00;24.10;;;3.80;;
63906;SDS011;50075;49.484;11.238;2022-12-29T06:39:26;22.77;;;3.72;;
63906;SDS011;50075;49.484;11.238;2022-12-29T06:41:52;25.55;;;4.05;;
63906;SDS011;50075;49.484;11.238;2022-12-29T06:44:18;25.63;;;3.90;;
63906;SDS011;50075;49.484;11.238;2022-12-29T06:46:45;19.25;;;3.15;;
63906;SDS011;50075;49.484;11.238;2022-12-29T06:49:11;21.33;;;3.50;;
63906;SDS011;50075;49.484;11.238;2022-12-29T06:51:36;20.17;;;3.40;;
63906;SDS011;50075;49.484;11.238;2022-12-29T06:54:01;25.38;;;3.85;;
63906;SDS011;50075;49.484;11.238;2022-12-29T06:56:27;18.52;;;3.20;;
63906;SDS011;50075;49.484;11.238;2022-12-29T06:58:52;21.33;;;3.25;;
63906;SDS011;50075;49.484;11.238;2022-12-29T07:01:18;21.13;;;3.65;;
63906;SDS011;50075;49.484;11.238;2022-12-29T07:03:43;14.32;;;3.00;;
63906;SDS011;50075;49.484;11.238;2022-12-29T07:06:08;24.77;;;3.97;;
63906;SDS011;50075;49.484;11.238;2022-12-29T07:08:34;19.77;;;3.42;;
63906;SDS011;50075;49.484;11.238;2022-12-29T07:10:59;22.38;;;3.80;;
63906;SDS011;50075;49.484;11.238;2022-12-29T07:13:24;27.05;;;4.07;;
63906;SDS011;50075;49.484;11.238;2022-12-29T07:15:50;23.05;;;3.83;;
63906;SDS011;50075;49.484;11.238;2022-12-29T07:18:15;26.00;;;4.05;;
63906;SDS011;50075;49.484;11.238;2022-12-29T07:20:41;25.27;;;4.20;;
63906;SDS011;50075;49.484;11.238;2022-12-29T07:23:06;18.58;;;3.58;;
63906;SDS011;50075;49.484;11.238;2022-12-29T07:25:32;29.40;;;4.32;;
63906;SDS011;50075;49.484;11.238;2022-12-29T07:27:57;23.00;;;3.92;;
63906;SDS011;50075;49.484;11.238;2022-12-29T07:30:22;28.77;;;4.35;;
63906;SDS011;50075;49.484;11.238;2022-12-29T07:32:48;23.40;;;3.90;;
63906;SDS011;50075;49.484;11.238;2022-12-29T07:35:13;25.30;;;3.90;;
63906;SDS011;50075;49.484;11.238;2022-12-29T07:37:39;24.08;;;3.97;;
63906;SDS011;50075;49.484;11.238;2022-12-29T07:40:04;24.42;;;4.13;;
63906;SDS011;50075;49.484;11.238;2022-12-29T07:42:30;33.58;;;4.93;;
63906;SDS011;50075;49.484;11.238;2022-12-29T07:44:56;27.48;;;4.43;;
63906;SDS011;50075;49.484;11.238;2022-12-29T07:47:21;20.42;;;3.80;;
63906;SDS011;50075;49.484;11.238;2022-12-29T07:49:47;39.90;;;5.70;;
63906;SDS011;50075;49.484;11.238;2022-12-29T07:52:12;29.00;;;4.50;;
63906;SDS011;50075;49.484;11.238;2022-12-29T07:54:37;34.58;;;5.28;;
63906;SDS011;50075;49.484;11.238;2022-12-29T07:57:03;29.80;;;4.78;;
63906;SDS011;50075;49.484;11.238;2022-12-29T07:59:29;38.10;;;4.70;;
63906;SDS011;50075;49.484;11.238;2022-12-29T08:01:55;34.28;;;5.15;;
63906;SDS011;50075;49.484;11.238;2022-12-29T08:04:21;33.75;;;4.68;;
63906;SDS011;50075;49.484;11.238;2022-12-29T08:06:46;27.98;;;4.45;;
63906;SDS011;50075;49.484;11.238;2022-12-29T08:09:11;37.30;;;4.18;;
63906;SDS011;50075;49.484;11.238;2022-12-29T08:11:37;22.23;;;3.63;;
63906;SDS011;50075;49.484;11.238;2022-12-29T08:14:03;31.38;;;4.85;;
63906;SDS011;50075;49.484;11.238;2022-12-29T08:16:29;31.42;;;4.57;;
63906;SDS011;50075;49.484;11.238;2022-12-29T08:18:54;29.80;;;4.63;;
63906;SDS011;50075;49.484;11.238;2022-12-29T08:21:19;29.75;;;4.38;;
63906;SDS011;50075;49.484;11.238;2022-12-29T08:23:45;30.38;;;4.70;;
63906;SDS011;50075;49.484;11.238;2022-12-29T08:26:10;33.80;;;5.20;;
63906;SDS011;50075;49.484;11.238;2022-12-29T08:28:36;27.25;;;4.10;;
63906;SDS011;50075;49.484;11.238;2022-12-29T08:31:02;35.63;;;4.88;;
63906;SDS011;50075;49.484;11.238;2022-12-29T08:33:28;26.30;;;4.30;;
63906;SDS011;50075;49.484;11.238;2022-12-29T08:36:03;32.28;;;4.80;;
63906;SDS011;50075;49.484;11.238;2022-12-29T08:38:30;22.83;;;3.92;;
63906;SDS011;50075;49.484;11.238;2022-12-29T08:40:56;28.83;;;4.63;;
63906;SDS011;50075;49.484;11.238;2022-12-29T08:43:23;24.88;;;4.30;;
63906;SDS011;50075;49.484;11.238;2022-12-29T08:45:48;19.98;;;3.70;;
63906;SDS011;50075;49.484;11.238;2022-12-29T08:48:14;29.00;;;4.32;;
63906;SDS011;50075;49.484;11.238;2022-12-29T08:50:43;16.35;;;3.15;;
63906;SDS011;50075;49.484;11.238;2022-12-29T08:53:09;17.40;;;3.35;;
63906;SDS011;50075;49.484;11.238;2022-12-29T08:55:35;17.65;;;2.88;;
63906;SDS011;50075;49.484;11.238;2022-12-29T08:58:00;22.42;;;3.72;;
63906;SDS011;50075;49.484;11.238;2022-12-29T09:00:25;21.30;;;3.63;;
63906;SDS011;50075;49.484;11.238;2022-12-29T09:02:51;20.17;;;3.33;;
63906;SDS011;50075;49.484;11.238;2022-12-29T09:05:16;20.35;;;3.47;;
63906;SDS011;50075;49.484;11.238;2022-12-29T09:07:42;21.90;;;3.50;;
63906;SDS011;50075;49.484;11.238;2022-12-29T09:10:07;24.30;;;3.58;;
63906;SDS011;50075;49.484;11.238;2022-12-29T09:12:33;23.33;;;3.97;;
63906;SDS011;50075;49.484;11.238;2022-12-29T09:14:58;24.63;;;3.95;;
63906;SDS011;50075;49.484;11.238;2022-12-29T09:17:23;19.42;;;3.42;;
63906;SDS011;50075;49.484;11.238;2022-12-29T09:20:09;25.30;;;4.07;;
63906;SDS011;50075;49.484;11.238;2022-12-29T09:22:35;28.25;;;4.55;;
63906;SDS011;50075;49.484;11.238;2022-12-29T09:25:01;21.73;;;3.63;;
63906;SDS011;50075;49.484;11.238;2022-12-29T09:27:26;21.20;;;3.50;;
63906;SDS011;50075;49.484;11.238;2022-12-29T09:29:51;29.70;;;4.50;;
63906;SDS011;50075;49.484;11.238;2022-12-29T09:32:17;17.98;;;3.17;;
63906;SDS011;50075;49.484;11.238;2022-12-29T09:34:42;24.63;;;3.88;;
63906;SDS011;50075;49.484;11.238;2022-12-29T09:37:07;23.20;;;3.47;;
63906;SDS011;50075;49.484;11.238;2022-12-29T09:39:33;25.20;;;4.05;;
63906;SDS011;50075;49.484;11.238;2022-12-29T09:42:06;22.35;;;3.75;;
63906;SDS011;50075;49.484;11.238;2022-12-29T09:47:20;17.55;;;3.33;;
63906;SDS011;50075;49.484;11.238;2022-12-29T09:49:56;35.22;;;5.25;;
63906;SDS011;50075;49.484;11.238;2022-12-29T09:52:29;26.40;;;4.28;;
63906;SDS011;50075;49.484;11.238;2022-12-29T10:00:14;19.25;;;3.55;;
63906;SDS011;50075;49.484;11.238;2022-12-29T10:03:05;23.00;;;3.58;;
63906;SDS011;50075;49.484;11.238;2022-12-29T10:08:26;22.58;;;3.63;;
63906;SDS011;50075;49.484;11.238;2022-12-29T10:25:02;23.42;;;3.90;;
63906;SDS011;50075;49.484;11.238;2022-12-29T10:27:40;27.63;;;4.05;;
63906;SDS011;50075;49.484;11.238;2022-12-29T10:30:10;19.50;;;3.53;;
63906;SDS011;50075;49.484;11.238;2022-12-29T10:32:39;23.38;;;4.20;;
63906;SDS011;50075;49.484;11.238;2022-12-29T10:35:14;25.35;;;4.00;;
63906;SDS011;50075;49.484;11.238;2022-12-29T10:37:58;26.50;;;3.97;;
63906;SDS011;50075;49.484;11.238;2022-12-29T10:40:36;27.05;;;5.13;;
63906;SDS011;50075;49.484;11.238;2022-12-29T10:43:16;24.50;;;4.20;;
63906;SDS011;50075;49.484;11.238;2022-12-29T10:46:24;21.08;;;3.78;;
63906;SDS011;50075;49.484;11.238;2022-12-29T10:48:44;22.33;;;3.47;;
63906;SDS011;50075;49.484;11.238;2022-12-29T10:51:20;20.83;;;3.60;;
63906;SDS011;50075;49.484;11.238;2022-12-29T10:53:46;22.85;;;3.65;;
63906;SDS011;50075;49.484;11.238;2022-12-29T10:58:53;20.02;;;3.47;;
63906;SDS011;50075;49.484;11.238;2022-12-29T11:01:22;24.85;;;4.18;;
63906;SDS011;50075;49.484;11.238;2022-12-29T11:06:54;24.05;;;4.45;;
63906;SDS011;50075;49.484;11.238;2022-12-29T11:09:22;20.67;;;3.45;;
63906;SDS011;50075;49.484;11.238;2022-12-29T11:11:52;26.58;;;4.32;;
63906;SDS011;50075;49.484;11.238;2022-12-29T11:14:19;22.27;;;3.65;;
63906;SDS011;50075;49.484;11.238;2022-12-29T11:16:56;21.65;;;4.13;;
63906;SDS011;50075;49.484;11.238;2022-12-29T11:19:23;24.75;;;4.32;;
63906;SDS011;50075;49.484;11.238;2022-12-29T11:21:51;21.65;;;3.75;;
63906;SDS011;50075;49.484;11.238;2022-12-29T11:26:51;22.58;;;4.22;;
63906;SDS011;50075;49.484;11.238;2022-12-29T11:29:39;21.70;;;4.03;;
63906;SDS011;50075;49.484;11.238;2022-12-29T11:32:26;24.15;;;4.07;;
63906;SDS011;50075;49.484;11.238;2022-12-29T11:34:54;23.73;;;4.40;;
63906;SDS011;50075;49.484;11.238;2022-12-29T11:39:55;27.23;;;4.33;;
63906;SDS011;50075;49.484;11.238;2022-12-29T11:42:30;25.80;;;4.03;;
63906;SDS011;50075;49.484;11.238;2022-12-29T11:44:58;19.58;;;3.45;;
63906;SDS011;50075;49.484;11.238;2022-12-29T11:47:31;22.33;;;4.03;;
63906;SDS011;50075;49.484;11.238;2022-12-29T11:50:02;24.25;;;4.30;;
63906;SDS011;50075;49.484;11.238;2022-12-29T11:52:34;23.42;;;4.18;;
63906;SDS011;50075;49.484;11.238;2022-12-29T11:55:03;21.17;;;3.67;;
63906;SDS011;50075;49.484;11.238;2022-12-29T11:57:32;25.05;;;4.30;;
63906;SDS011;50075;49.484;11.238;2022-12-29T12:00:00;21.08;;;3.88;;
63906;SDS011;50075;49.484;11.238;2022-12-29T12:05:41;23.02;;;4.18;;
63906;SDS011;50075;49.484;11.238;2022-12-29T12:08:14;25.92;;;4.90;;
63906;SDS011;50075;49.484;11.238;2022-12-29T12:10:43;22.13;;;4.30;;
63906;SDS011;50075;49.484;11.238;2022-12-29T12:16:32;29.48;;;4.60;;
63906;SDS011;50075;49.484;11.238;2022-12-29T12:18:56;16.85;;;3.08;;
63906;SDS011;50075;49.484;11.238;2022-12-29T12:21:34;24.20;;;3.90;;
63906;SDS011;50075;49.484;11.238;2022-12-29T12:24:11;23.27;;;3.50;;
63906;SDS011;50075;49.484;11.238;2022-12-29T12:32:17;18.15;;;3.28;;
63906;SDS011;50075;49.484;11.238;2022-12-29T12:34:48;20.05;;;3.83;;
63906;SDS011;50075;49.484;11.238;2022-12-29T12:51:33;24.30;;;4.25;;
63906;SDS011;50075;49.484;11.238;2022-12-29T13:05:34;23.08;;;4.22;;
63906;SDS011;50075;49.484;11.238;2022-12-29T13:11:02;31.05;;;5.10;;
63906;SDS011;50075;49.484;11.238;2022-12-29T13:19:19;21.45;;;4.30;;
63906;SDS011;50075;49.484;11.238;2022-12-29T13:28:02;22.30;;;4.05;;
63906;SDS011;50075;49.484;11.238;2022-12-29T13:36:08;26.90;;;4.85;;
63906;SDS011;50075;49.484;11.238;2022-12-29T13:38:40;19.63;;;3.40;;
63906;SDS011;50075;49.484;11.238;2022-12-29T13:41:14;23.50;;;4.57;;
63906;SDS011;50075;49.484;11.238;2022-12-29T13:43:46;20.38;;;3.83;;
63906;SDS011;50075;49.484;11.238;2022-12-29T13:46:16;22.92;;;4.45;;
63906;SDS011;50075;49.484;11.238;2022-12-29T13:48:56;20.38;;;3.78;;
63906;SDS011;50075;49.484;11.238;2022-12-29T13:51:29;23.65;;;4.32;;
63906;SDS011;50075;49.484;11.238;2022-12-29T13:54:00;22.55;;;4.25;;
63906;SDS011;50075;49.484;11.238;2022-12-29T13:59:41;16.35;;;3.33;;
63906;SDS011;50075;49.484;11.238;2022-12-29T14:04:54;23.08;;;4.10;;
63906;SDS011;50075;49.484;11.238;2022-12-29T14:07:25;28.23;;;4.97;;
63906;SDS011;50075;49.484;11.238;2022-12-29T14:09:51;32.38;;;5.45;;
63906;SDS011;50075;49.484;11.238;2022-12-29T14:12:25;29.95;;;5.25;;
63906;SDS011;50075;49.484;11.238;2022-12-29T14:15:06;33.33;;;5.53;;
63906;SDS011;50075;49.484;11.238;2022-12-29T14:17:44;31.80;;;4.63;;
63906;SDS011;50075;49.484;11.238;2022-12-29T14:20:26;22.85;;;4.13;;
63906;SDS011;50075;49.484;11.238;2022-12-29T14:22:59;17.83;;;3.10;;
63906;SDS011;50075;49.484;11.238;2022-12-29T14:30:59;36.05;;;5.38;;
63906;SDS011;50075;49.484;11.238;2022-12-29T14:33:34;35.75;;;4.47;;
63906;SDS011;50075;49.484;11.238;2022-12-29T14:36:20;36.92;;;4.63;;
63906;SDS011;50075;49.484;11.238;2022-12-29T14:38:48;29.48;;;4.07;;
63906;SDS011;50075;49.484;11.238;2022-12-29T14:43:52;34.03;;;4.68;;
63906;SDS011;50075;49.484;11.238;2022-12-29T14:46:20;47.88;;;6.18;;
63906;SDS011;50075;49.484;11.238;2022-12-29T14:48:45;39.65;;;5.13;;
63906;SDS011;50075;49.484;11.238;2022-12-29T14:51:17;63.55;;;7.18;;
63906;SDS011;50075;49.484;11.238;2022-12-29T14:53:46;37.63;;;4.78;;
63906;SDS011;50075;49.484;11.238;2022-12-29T14:56:16;36.97;;;4.97;;
63906;SDS011;50075;49.484;11.238;2022-12-29T15:01:17;45.80;;;5.85;;
63906;SDS011;50075;49.484;11.238;2022-12-29T15:03:50;44.15;;;5.65;;
63906;SDS011;50075;49.484;11.238;2022-12-29T15:06:28;42.05;;;5.20;;
63906;SDS011;50075;49.484;11.238;2022-12-29T15:16:55;43.92;;;5.53;;
63906;SDS011;50075;49.484;11.238;2022-12-29T15:19:21;47.83;;;6.63;;
63906;SDS011;50075;49.484;11.238;2022-12-29T15:21:47;56.10;;;7.10;;
63906;SDS011;50075;49.484;11.238;2022-12-29T15:24:13;34.90;;;5.00;;
63906;SDS011;50075;49.484;11.238;2022-12-29T15:26:44;39.67;;;5.20;;
63906;SDS011;50075;49.484;11.238;2022-12-29T15:32:00;49.17;;;6.35;;
63906;SDS011;50075;49.484;11.238;2022-12-29T15:34:35;39.10;;;5.25;;
63906;SDS011;50075;49.484;11.238;2022-12-29T15:37:05;46.25;;;6.28;;
63906;SDS011;50075;49.484;11.238;2022-12-29T15:39:31;54.03;;;6.47;;
63906;SDS011;50075;49.484;11.238;2022-12-29T15:42:07;58.55;;;6.97;;
63906;SDS011;50075;49.484;11.238;2022-12-29T15:44:55;45.97;;;5.95;;
63906;SDS011;50075;49.484;11.238;2022-12-29T15:47:25;43.75;;;6.15;;
63906;SDS011;50075;49.484;11.238;2022-12-29T15:50:02;32.15;;;4.97;;
63906;SDS011;50075;49.484;11.238;2022-12-29T15:52:32;49.33;;;6.30;;
63906;SDS011;50075;49.484;11.238;2022-12-29T15:54:58;48.22;;;6.13;;
63906;SDS011;50075;49.484;11.238;2022-12-29T15:57:29;40.92;;;5.72;;
63906;SDS011;50075;49.484;11.238;2022-12-29T16:00:00;37.85;;;5.25;;
63906;SDS011;50075;49.484;11.238;2022-12-29T16:02:26;30.13;;;4.93;;
63906;SDS011;50075;49.484;11.238;2022-12-29T16:04:52;27.85;;;4.75;;
63906;SDS011;50075;49.484;11.238;2022-12-29T16:07:26;39.97;;;5.60;;
63906;SDS011;50075;49.484;11.238;2022-12-29T16:09:56;50.15;;;5.80;;
63906;SDS011;50075;49.484;11.238;2022-12-29T16:12:24;45.72;;;5.85;;
63906;SDS011;50075;49.484;11.238;2022-12-29T16:15:03;38.33;;;5.47;;
63906;SDS011;50075;49.484;11.238;2022-12-29T16:17:32;38.22;;;5.45;;
63906;SDS011;50075;49.484;11.238;2022-12-29T16:20:17;48.05;;;5.97;;
63906;SDS011;50075;49.484;11.238;2022-12-29T16:25:21;36.03;;;4.93;;
63906;SDS011;50075;49.484;11.238;2022-12-29T16:27:49;45.33;;;5.63;;
63906;SDS011;50075;49.484;11.238;2022-12-29T16:30:17;44.60;;;5.75;;
63906;SDS011;50075;49.484;11.238;2022-12-29T16:32:49;29.08;;;4.38;;
63906;SDS011;50075;49.484;11.238;2022-12-29T16:35:18;32.80;;;4.72;;
63906;SDS011;50075;49.484;11.238;2022-12-29T16:38:14;46.58;;;6.05;;
63906;SDS011;50075;49.484;11.238;2022-12-29T16:43:25;43.00;;;5.45;;
63906;SDS011;50075;49.484;11.238;2022-12-29T16:46:16;40.15;;;5.45;;
63906;SDS011;50075;49.484;11.238;2022-12-29T16:48:47;36.15;;;5.10;;
63906;SDS011;50075;49.484;11.238;2022-12-29T16:51:30;36.70;;;4.90;;
63906;SDS011;50075;49.484;11.238;2022-12-29T16:53:58;44.28;;;5.68;;
63906;SDS011;50075;49.484;11.238;2022-12-29T16:56:25;42.90;;;5.97;;
63906;SDS011;50075;49.484;11.238;2022-12-29T16:59:03;43.30;;;5.78;;
63906;SDS011;50075;49.484;11.238;2022-12-29T17:01:34;43.58;;;5.88;;
63906;SDS011;50075;49.484;11.238;2022-12-29T17:04:04;49.17;;;6.40;;
63906;SDS011;50075;49.484;11.238;2022-12-29T17:06:32;47.70;;;6.25;;
63906;SDS011;50075;49.484;11.238;2022-12-29T17:08:58;51.38;;;6.72;;
63906;SDS011;50075;49.484;11.238;2022-12-29T17:11:33;43.88;;;5.93;;
63906;SDS011;50075;49.484;11.238;2022-12-29T17:14:23;44.00;;;5.80;;
63906;SDS011;50075;49.484;11.238;2022-12-29T17:16:55;38.78;;;5.47;;
63906;SDS011;50075;49.484;11.238;2022-12-29T17:19:24;35.17;;;5.05;;
63906;SDS011;50075;49.484;11.238;2022-12-29T17:21:54;42.70;;;5.75;;
63906;SDS011;50075;49.484;11.238;2022-12-29T17:24:19;38.08;;;5.35;;
63906;SDS011;50075;49.484;11.238;2022-12-29T17:26:46;40.45;;;5.38;;
63906;SDS011;50075;49.484;11.238;2022-12-29T17:29:56;56.72;;;6.95;;
63906;SDS011;50075;49.484;11.238;2022-12-29T17:32:03;45.92;;;6.28;;
63906;SDS011;50075;49.484;11.238;2022-12-29T17:34:31;47.78;;;6.18;;
63906;SDS011;50075;49.484;11.238;2022-12-29T17:36:57;44.80;;;6.38;;
63906;SDS011;50075;49.484;11.238;2022-12-29T17:39:22;57.05;;;7.43;;
63906;SDS011;50075;49.484;11.238;2022-12-29T17:41:48;53.55;;;7.30;;
63906;SDS011;50075;49.484;11.238;2022-12-29T17:44:17;48.38;;;6.95;;
63906;SDS011;50075;49.484;11.238;2022-12-29T17:46:44;41.20;;;6.25;;
63906;SDS011;50075;49.484;11.238;2022-12-29T17:49:14;39.05;;;6.32;;